createdAt,value
2022-10-23T04:46:01.755Z,99.99
2022-10-23T04:47:02.746Z,99.99
2022-10-23T04:48:02.723Z,99.99
2022-10-23T04:49:02.720Z,99.99
2022-10-23T04:50:02.708Z,99.99
2022-10-23T04:51:02.713Z,99.99
2022-10-23T04:52:02.688Z,99.99
2022-10-23T04:53:02.685Z,99.99
2022-10-23T04:54:02.665Z,99.99
2022-10-23T04:55:02.661Z,99.99
2022-10-23T04:56:02.662Z,99.99
2022-10-23T04:57:02.669Z,99.99
2022-10-23T04:58:02.631Z,99.99
2022-10-23T04:59:02.703Z,99.99
2022-10-23T05:00:02.621Z,99.99
2022-10-23T05:01:02.751Z,99.99
2022-10-23T05:02:02.590Z,99.99
2022-10-23T05:03:02.576Z,99.99
2022-10-23T05:04:02.562Z,99.99
2022-10-23T05:05:02.565Z,99.99
2022-10-23T05:06:02.598Z,99.99
2022-10-23T05:07:02.582Z,99.99
2022-10-23T05:08:02.518Z,99.99
2022-10-23T05:09:02.520Z,99.99
2022-10-23T05:10:02.540Z,99.99
2022-10-23T05:11:02.556Z,99.99
2022-10-23T05:12:02.523Z,99.99
2022-10-23T05:13:02.481Z,99.99
2022-10-23T05:14:02.481Z,99.99
2022-10-23T05:15:02.492Z,99.99
2022-10-23T05:16:02.488Z,99.99
2022-10-23T05:17:02.485Z,99.99
2022-10-23T05:18:02.430Z,99.99
2022-10-23T05:19:02.412Z,99.99
2022-10-23T05:20:02.413Z,99.99
2022-10-23T05:21:02.426Z,99.99
2022-10-23T05:22:02.383Z,99.99
2022-10-23T05:23:02.376Z,99.99
2022-10-23T05:24:02.501Z,99.99
2022-10-23T05:25:02.386Z,99.99
2022-10-23T05:26:02.368Z,99.99
2022-10-23T05:27:02.389Z,99.99
2022-10-23T05:28:02.317Z,99.99
2022-10-23T05:29:02.375Z,99.99
2022-10-23T05:30:02.397Z,99.99
2022-10-23T05:31:02.376Z,99.99
2022-10-23T05:32:02.268Z,99.99
2022-10-23T05:33:02.267Z,99.99
2022-10-23T05:34:02.244Z,99.99
2022-10-23T05:35:02.246Z,99.99
2022-10-23T05:36:02.241Z,99.99
2022-10-23T05:37:02.218Z,99.99
2022-10-23T05:38:02.212Z,99.99
2022-10-23T05:39:02.193Z,99.99
2022-10-23T05:40:02.184Z,99.99
2022-10-23T05:41:02.191Z,99.99
2022-10-23T05:42:02.158Z,99.99
2022-10-23T05:43:02.152Z,99.99
2022-10-23T05:44:02.149Z,99.99
2022-10-23T05:45:02.132Z,99.99
2022-10-23T05:46:02.128Z,99.99
2022-10-23T05:47:02.107Z,99.99
2022-10-23T05:48:11.079Z,99.99
2022-10-23T05:49:02.108Z,99.99
2022-10-23T05:50:02.072Z,99.99
2022-10-23T05:51:02.081Z,99.99
2022-10-23T05:52:02.052Z,99.99
2022-10-23T05:53:02.046Z,99.99
2022-10-23T05:54:02.029Z,99.99
2022-10-23T05:55:02.023Z,99.99
2022-10-23T05:56:02.023Z,99.99
2022-10-23T05:57:02.000Z,99.99
2022-10-23T05:58:01.984Z,99.99
2022-10-23T05:59:01.977Z,99.99
2022-10-23T06:00:01.964Z,99.99
2022-10-23T06:01:02.007Z,99.99
2022-10-23T06:02:02.027Z,99.99
2022-10-23T06:03:01.940Z,99.99
2022-10-23T06:04:01.928Z,99.99
2022-10-23T06:05:01.915Z,99.99
2022-10-23T06:06:01.898Z,99.99
2022-10-23T06:07:01.906Z,99.99
2022-10-23T06:08:01.880Z,99.99
2022-10-23T06:09:01.871Z,99.99
2022-10-23T06:10:01.858Z,99.99
2022-10-23T06:11:01.853Z,99.99
2022-10-23T06:12:01.852Z,99.99
2022-10-23T06:13:01.824Z,99.99
2022-10-23T06:14:01.831Z,99.99
2022-10-23T06:15:01.807Z,99.99
2022-10-23T06:16:01.790Z,99.99
2022-10-23T06:17:01.792Z,99.99
2022-10-23T06:18:01.768Z,99.99
2022-10-23T06:19:01.764Z,99.99
2022-10-23T06:20:01.755Z,99.99
2022-10-23T06:21:01.745Z,99.99
2022-10-23T06:22:01.802Z,99.99
2022-10-23T06:23:01.720Z,99.99
2022-10-23T06:24:01.706Z,99.99
2022-10-23T06:25:01.697Z,99.99
2022-10-23T06:26:01.687Z,99.99
2022-10-23T06:27:01.686Z,99.99
2022-10-23T06:28:01.661Z,99.99
2022-10-23T06:29:01.653Z,99.99
2022-10-23T06:30:01.640Z,99.99
2022-10-23T06:31:01.632Z,99.99
2022-10-23T06:32:01.626Z,99.99
2022-10-23T06:33:04.533Z,99.99
2022-10-23T06:34:01.594Z,99.99
2022-10-23T06:35:01.592Z,99.99
2022-10-23T06:36:01.580Z,99.99
2022-10-23T06:37:01.582Z,99.99
2022-10-23T06:38:01.553Z,99.99
2022-10-23T06:39:01.562Z,99.99
2022-10-23T06:40:01.606Z,99.99
2022-10-23T06:41:01.528Z,99.99
2022-10-23T06:42:01.520Z,99.99
2022-10-23T06:43:01.500Z,99.99
2022-10-23T06:44:01.486Z,99.99
2022-10-23T06:45:04.906Z,99.99
2022-10-23T06:46:01.468Z,99.99
2022-10-23T06:47:01.477Z,99.99
2022-10-23T06:48:01.445Z,99.99
2022-10-23T06:49:01.438Z,99.99
2022-10-23T06:50:01.423Z,99.99
2022-10-23T06:51:01.418Z,99.99
2022-10-23T06:52:01.416Z,99.99
2022-10-23T06:53:01.395Z,99.99
2022-10-23T06:54:01.384Z,99.99
2022-10-23T06:55:01.377Z,99.99
2022-10-23T06:56:01.363Z,99.92
2022-10-23T06:57:01.368Z,99.16
2022-10-23T06:58:01.340Z,98.55
2022-10-23T06:59:01.331Z,98.25
2022-10-23T07:00:01.321Z,98.00
2022-10-23T07:01:01.473Z,97.89
2022-10-23T07:02:01.314Z,97.89
2022-10-23T07:03:01.301Z,98.00
2022-10-23T07:04:01.277Z,98.10
2022-10-23T07:05:01.268Z,98.00
2022-10-23T07:06:01.259Z,98.20
2022-10-23T07:07:01.262Z,97.89
2022-10-23T07:08:01.233Z,98.30
2022-10-23T07:09:01.226Z,98.00
2022-10-23T07:10:01.316Z,98.00
2022-10-23T07:11:01.206Z,97.69
2022-10-23T07:12:01.204Z,97.60
2022-10-23T07:13:01.418Z,97.49
2022-10-23T07:14:01.170Z,97.49
2022-10-23T07:15:01.164Z,97.39
2022-10-23T07:16:01.155Z,97.19
2022-10-23T07:17:01.155Z,97.49
2022-10-23T07:18:01.132Z,97.08
2022-10-23T07:19:01.158Z,97.24
2022-10-23T07:20:01.112Z,96.83
2022-10-23T07:21:01.097Z,97.14
2022-10-23T07:22:01.106Z,97.14
2022-10-23T07:23:01.088Z,96.83
2022-10-23T07:24:01.071Z,97.04
2022-10-23T07:25:01.063Z,96.73
2022-10-23T07:26:01.050Z,96.73
2022-10-23T07:27:01.052Z,96.38
2022-10-23T07:28:01.029Z,96.08
2022-10-23T07:29:01.031Z,96.38
2022-10-23T07:30:01.008Z,96.08
2022-10-23T07:31:00.996Z,95.47
2022-10-23T07:32:01.009Z,95.67
2022-10-23T07:33:00.971Z,94.92
2022-10-23T07:34:00.965Z,94.92
2022-10-23T07:35:00.999Z,95.02
2022-10-23T07:36:00.943Z,95.22
2022-10-23T07:37:00.948Z,95.32
2022-10-23T07:38:00.927Z,95.02
2022-10-23T07:39:00.910Z,94.82
2022-10-23T07:40:00.906Z,94.82
2022-10-23T07:41:00.889Z,94.67
2022-10-23T07:42:00.894Z,94.77
2022-10-23T07:43:00.868Z,95.07
2022-10-23T07:44:00.860Z,94.57
2022-10-23T07:45:00.844Z,94.06
2022-10-23T07:46:00.842Z,93.41
2022-10-23T07:47:00.841Z,92.90
2022-10-23T07:48:00.820Z,92.70
2022-10-23T07:49:00.803Z,92.25
2022-10-23T07:50:00.799Z,92.05
2022-10-23T07:51:00.785Z,91.64
2022-10-23T07:52:00.903Z,91.74
2022-10-23T07:53:00.766Z,91.39
2022-10-23T07:54:00.757Z,90.18
2022-10-23T07:55:00.749Z,90.58
2022-10-23T07:56:00.736Z,90.89
2022-10-23T07:57:00.734Z,91.30
2022-10-23T07:58:00.717Z,91.19
2022-10-23T07:59:00.697Z,91.60
2022-10-23T08:00:00.691Z,91.39
2022-10-23T08:01:00.775Z,90.89
2022-10-23T08:02:00.805Z,90.79
2022-10-23T08:03:00.656Z,90.79
2022-10-23T08:04:00.655Z,91.05
2022-10-23T08:05:00.636Z,90.69
2022-10-23T08:06:00.630Z,90.79
2022-10-23T08:07:00.628Z,90.48
2022-10-23T08:08:00.610Z,90.58
2022-10-23T08:09:03.763Z,90.54
2022-10-23T08:10:00.593Z,89.83
2022-10-23T08:11:00.590Z,89.83
2022-10-23T08:12:00.570Z,90.75
2022-10-23T08:13:00.549Z,90.24
2022-10-23T08:14:00.542Z,90.14
2022-10-23T08:15:00.534Z,90.34
2022-10-23T08:16:00.535Z,89.83
2022-10-23T08:17:03.548Z,90.24
2022-10-23T08:18:00.505Z,90.03
2022-10-23T08:19:00.488Z,90.14
2022-10-23T08:20:00.489Z,90.44
2022-10-23T08:21:00.479Z,90.03
2022-10-23T08:22:00.462Z,90.14
2022-10-23T08:23:00.450Z,90.54
2022-10-23T08:24:00.441Z,90.44
2022-10-23T08:25:00.422Z,90.03
2022-10-23T08:26:00.425Z,90.34
2022-10-23T08:27:00.416Z,89.94
2022-10-23T08:28:04.178Z,89.43
2022-10-23T08:29:00.401Z,89.53
2022-10-23T08:30:00.375Z,89.73
2022-10-23T08:31:00.360Z,89.43
2022-10-23T08:32:00.370Z,89.23
2022-10-23T08:33:00.342Z,88.27
2022-10-23T08:34:00.340Z,88.48
2022-10-23T08:35:00.318Z,88.17
2022-10-23T08:36:00.318Z,89.02
2022-10-23T08:37:00.311Z,88.51
2022-10-23T08:38:00.291Z,88.42
2022-10-23T08:39:00.303Z,88.68
2022-10-23T08:40:00.272Z,88.78
2022-10-23T08:41:00.266Z,88.68
2022-10-23T08:42:00.344Z,88.72
2022-10-23T08:43:00.235Z,89.63
2022-10-23T08:44:00.227Z,89.18
2022-10-23T08:45:00.212Z,89.23
2022-10-23T08:46:00.207Z,89.08
2022-10-23T08:47:00.212Z,88.37
2022-10-23T08:48:00.198Z,88.27
2022-10-23T08:49:00.173Z,88.07
2022-10-23T08:50:00.177Z,87.22
2022-10-23T08:51:00.151Z,87.52
2022-10-23T08:52:00.154Z,87.02
2022-10-23T08:53:00.127Z,87.12
2022-10-23T08:54:00.141Z,87.08
2022-10-23T08:55:00.104Z,86.47
2022-10-23T08:56:00.098Z,86.77
2022-10-23T08:57:00.105Z,86.53
2022-10-23T08:58:00.076Z,85.93
2022-10-23T08:59:00.068Z,86.33
2022-10-23T09:00:00.067Z,86.63
2022-10-23T09:01:00.243Z,86.63
2022-10-23T09:02:00.264Z,86.27
2022-10-23T09:03:00.032Z,86.77
2022-10-23T09:04:00.016Z,87.38
2022-10-23T09:05:00.006Z,86.67
2022-10-23T09:05:59.996Z,86.98
2022-10-23T09:07:00.089Z,87.04
2022-10-23T09:07:59.974Z,87.13
2022-10-23T09:08:59.956Z,86.43
2022-10-23T09:09:59.995Z,86.22
2022-10-23T09:10:59.948Z,86.39
2022-10-23T09:11:59.947Z,85.74
2022-10-23T09:12:59.924Z,84.79
2022-10-23T09:13:59.908Z,83.74
2022-10-23T09:14:59.889Z,83.70
2022-10-23T09:15:59.890Z,82.19
2022-10-23T09:16:59.883Z,83.30
2022-10-23T09:17:59.871Z,83.00
2022-10-23T09:18:59.848Z,83.40
2022-10-23T09:19:59.862Z,84.51
2022-10-23T09:20:59.833Z,83.00
2022-10-23T09:21:59.848Z,83.54
2022-10-23T09:22:59.863Z,83.98
2022-10-23T09:23:59.817Z,84.83
2022-10-23T09:24:59.819Z,85.44
2022-10-23T09:25:59.817Z,86.25
2022-10-23T09:26:59.824Z,86.15
2022-10-23T09:28:01.643Z,85.44
2022-10-23T09:28:59.745Z,85.50
2022-10-23T09:29:59.739Z,84.55
2022-10-23T09:30:59.723Z,84.15
2022-10-23T09:31:59.730Z,83.44
2022-10-23T09:32:59.703Z,84.05
2022-10-23T09:33:59.706Z,84.81
2022-10-23T09:34:59.677Z,82.56
2022-10-23T09:35:59.680Z,83.02
2022-10-23T09:36:59.689Z,81.17
2022-10-23T09:37:59.653Z,80.87
2022-10-23T09:38:59.640Z,81.57
2022-10-23T09:39:59.642Z,81.63
2022-10-23T09:40:59.631Z,80.46
2022-10-23T09:41:59.637Z,81.77
2022-10-23T09:42:59.691Z,81.87
2022-10-23T09:43:59.610Z,81.67
2022-10-23T09:44:59.599Z,81.07
2022-10-23T09:45:59.572Z,81.47
2022-10-23T09:46:59.563Z,81.53
2022-10-23T09:47:59.561Z,81.59
2022-10-23T09:49:00.960Z,79.68
2022-10-23T09:49:59.528Z,78.70
2022-10-23T09:50:59.512Z,75.71
2022-10-23T09:51:59.511Z,75.62
2022-10-23T09:52:59.504Z,74.37
2022-10-23T09:53:59.485Z,74.10
2022-10-23T09:54:59.470Z,72.87
2022-10-23T09:55:59.468Z,73.97
2022-10-23T09:56:59.457Z,73.61
2022-10-23T09:57:59.458Z,73.64
2022-10-23T09:58:59.430Z,74.65
2022-10-23T09:59:59.426Z,74.35
2022-10-23T10:00:59.501Z,73.91
2022-10-23T10:01:59.563Z,73.81
2022-10-23T10:02:59.405Z,72.50
2022-10-23T10:03:59.381Z,72.67
2022-10-23T10:04:59.366Z,72.97
2022-10-23T10:05:59.368Z,73.07
2022-10-23T10:06:59.350Z,73.37
2022-10-23T10:07:59.356Z,72.83
2022-10-23T10:08:59.324Z,73.74
2022-10-23T10:09:59.324Z,74.11
2022-10-23T10:10:59.306Z,76.62
2022-10-23T10:11:59.300Z,75.85
2022-10-23T10:12:59.460Z,74.74
2022-10-23T10:13:59.277Z,75.09
2022-10-23T10:14:59.267Z,74.82
2022-10-23T10:15:59.260Z,76.32
2022-10-23T10:16:59.245Z,77.00
2022-10-23T10:17:59.255Z,76.69
2022-10-23T10:18:59.224Z,77.09
2022-10-23T10:20:03.675Z,76.59
2022-10-23T10:20:59.212Z,76.73
2022-10-23T10:21:59.197Z,77.83
2022-10-23T10:22:59.198Z,78.94
2022-10-23T10:23:59.173Z,78.74
2022-10-23T10:24:59.159Z,77.87
2022-10-23T10:25:59.156Z,78.78
2022-10-23T10:26:59.154Z,78.88
2022-10-23T10:27:59.145Z,79.99
2022-10-23T10:28:59.120Z,80.39
2022-10-23T10:29:59.117Z,80.29
2022-10-23T10:30:59.095Z,80.65
2022-10-23T10:31:59.092Z,80.35
2022-10-23T10:32:59.089Z,79.44
2022-10-23T10:33:59.121Z,80.11
2022-10-23T10:34:59.056Z,80.25
2022-10-23T10:35:59.088Z,79.00
2022-10-23T10:36:59.037Z,79.06
2022-10-23T10:37:59.050Z,77.36
2022-10-23T10:38:59.012Z,78.12
2022-10-23T10:39:59.009Z,76.42
2022-10-23T10:40:59.058Z,75.51
2022-10-23T10:41:58.984Z,75.82
2022-10-23T10:42:58.985Z,75.95
2022-10-23T10:43:58.967Z,75.85
2022-10-23T10:44:58.989Z,77.86
2022-10-23T10:45:58.943Z,76.86
2022-10-23T10:46:58.928Z,77.26
2022-10-23T10:47:58.941Z,75.75
2022-10-23T10:48:58.909Z,76.29
2022-10-23T10:49:58.919Z,77.00
2022-10-23T10:50:58.888Z,76.89
2022-10-23T10:51:58.884Z,76.89
2022-10-23T10:52:58.902Z,76.59
2022-10-23T10:53:58.859Z,77.20
2022-10-23T10:54:58.842Z,77.29
2022-10-23T10:55:58.903Z,77.20
2022-10-23T10:56:58.845Z,76.79
2022-10-23T10:57:59.929Z,77.00
2022-10-23T10:58:58.801Z,76.09
2022-10-23T10:59:58.798Z,77.00
2022-10-23T11:00:58.900Z,76.73
2022-10-23T11:01:58.934Z,77.13
2022-10-23T11:02:58.771Z,77.83
2022-10-23T11:03:58.749Z,78.50
2022-10-23T11:04:58.735Z,77.20
2022-10-23T11:06:58.717Z,78.44
2022-10-23T11:07:58.729Z,77.03
2022-10-23T11:09:19.226Z,77.73
2022-10-23T11:09:58.691Z,78.50
2022-10-23T11:10:58.670Z,78.03
2022-10-23T11:11:58.664Z,79.21
2022-10-23T11:12:58.665Z,78.23
2022-10-23T11:13:58.642Z,78.64
2022-10-23T11:14:58.624Z,78.54
2022-10-23T11:15:58.618Z,79.14
2022-10-23T11:16:58.629Z,79.04
2022-10-23T11:17:58.615Z,79.64
2022-10-23T11:18:58.581Z,79.24
2022-10-23T11:19:58.584Z,78.84
2022-10-23T11:20:58.558Z,79.44
2022-10-23T11:21:58.554Z,79.54
2022-10-23T11:22:58.559Z,79.35
2022-10-23T11:23:58.596Z,79.58
2022-10-23T11:24:58.532Z,79.48
2022-10-23T11:25:58.519Z,79.24
2022-10-23T11:26:58.499Z,79.64
2022-10-23T11:28:03.354Z,79.35
2022-10-23T11:28:58.484Z,79.24
2022-10-23T11:29:58.469Z,79.54
2022-10-23T11:30:58.455Z,79.24
2022-10-23T11:31:58.451Z,79.14
2022-10-23T11:32:58.446Z,78.23
2022-10-23T11:33:58.428Z,78.54
2022-10-23T11:34:58.421Z,78.74
2022-10-23T11:35:58.405Z,78.44
2022-10-23T11:36:58.400Z,78.70
2022-10-23T11:37:58.393Z,78.70
2022-10-23T11:38:58.383Z,78.30
2022-10-23T11:39:58.358Z,78.20
2022-10-23T11:40:58.351Z,78.54
2022-10-23T11:41:58.339Z,78.90
2022-10-23T11:42:58.349Z,78.74
2022-10-23T11:43:58.318Z,79.35
2022-10-23T11:44:58.307Z,79.85
2022-10-23T11:45:58.291Z,79.74
2022-10-23T11:46:58.287Z,80.58
2022-10-23T11:47:58.290Z,81.09
2022-10-23T11:48:58.376Z,80.49
2022-10-23T11:49:58.255Z,80.08
2022-10-23T11:51:00.295Z,80.39
2022-10-23T11:51:58.232Z,80.29
2022-10-23T11:53:14.657Z,79.28
2022-10-23T11:53:58.211Z,79.58
2022-10-23T11:54:58.207Z,80.55
2022-10-23T11:55:58.186Z,80.45
2022-10-23T11:56:58.184Z,79.35
2022-10-23T11:57:58.178Z,80.25
2022-10-23T11:58:58.164Z,80.05
2022-10-23T11:59:58.138Z,79.85
2022-10-23T12:00:58.222Z,79.85
2022-10-23T12:01:58.168Z,79.74
2022-10-23T12:02:59.095Z,80.85
2022-10-23T12:03:58.101Z,80.35
2022-10-23T12:04:58.123Z,81.05
2022-10-23T12:05:58.093Z,80.29
2022-10-23T12:06:58.073Z,80.45
2022-10-23T12:07:58.068Z,79.94
2022-10-23T12:08:58.055Z,79.44
2022-10-23T12:09:58.034Z,79.74
2022-10-23T12:10:58.022Z,79.35
2022-10-23T12:11:58.018Z,79.85
2022-10-23T12:12:58.054Z,79.44
2022-10-23T12:13:57.991Z,80.15
2022-10-23T12:14:57.984Z,79.30
2022-10-23T12:16:00.746Z,79.30
2022-10-23T12:16:57.960Z,78.60
2022-10-23T12:17:57.945Z,78.10
2022-10-23T12:18:57.958Z,77.90
2022-10-23T12:19:57.923Z,78.27
2022-10-23T12:20:57.922Z,77.70
2022-10-23T12:21:57.904Z,78.40
2022-10-23T12:22:57.904Z,78.30
2022-10-23T12:23:57.895Z,78.40
2022-10-23T12:24:57.871Z,79.00
2022-10-23T12:25:57.867Z,79.21
2022-10-23T12:26:57.849Z,79.81
2022-10-23T12:27:57.841Z,79.74
2022-10-23T12:28:57.854Z,79.35
2022-10-23T12:29:57.817Z,79.64
2022-10-23T12:30:57.814Z,79.94
2022-10-23T12:31:57.792Z,80.05
2022-10-23T12:32:57.792Z,80.15
2022-10-23T12:33:57.796Z,79.94
2022-10-23T12:34:57.767Z,80.25
2022-10-23T12:35:57.766Z,80.95
2022-10-23T12:36:57.745Z,80.55
2022-10-23T12:37:57.737Z,80.15
2022-10-23T12:38:57.738Z,80.75
2022-10-23T12:39:57.708Z,80.85
2022-10-23T12:40:57.703Z,81.26
2022-10-23T12:41:57.695Z,82.06
2022-10-23T12:42:57.683Z,81.26
2022-10-23T12:43:57.683Z,81.46
2022-10-23T12:44:57.657Z,81.85
2022-10-23T12:45:57.667Z,81.76
2022-10-23T12:46:57.662Z,81.35
2022-10-23T12:47:57.624Z,81.26
2022-10-23T12:48:57.624Z,81.26
2022-10-23T12:49:57.604Z,81.26
2022-10-23T12:50:57.609Z,80.85
2022-10-23T12:51:57.583Z,80.41
2022-10-23T12:52:57.577Z,80.11
2022-10-23T12:53:57.574Z,80.31
2022-10-23T12:54:57.550Z,80.21
2022-10-23T12:55:57.586Z,80.11
2022-10-23T12:56:57.533Z,78.80
2022-10-23T12:57:57.548Z,79.30
2022-10-23T12:58:57.521Z,78.66
2022-10-23T12:59:57.491Z,76.65
2022-10-23T13:00:57.607Z,73.54
2022-10-23T13:01:57.653Z,75.62
2022-10-23T13:02:57.475Z,74.11
2022-10-23T13:03:57.470Z,72.17
2022-10-23T13:04:57.455Z,72.27
2022-10-23T13:05:57.432Z,72.06
2022-10-23T13:06:57.424Z,73.17
2022-10-23T13:07:57.465Z,72.97
2022-10-23T13:08:57.422Z,73.07
2022-10-23T13:09:57.395Z,73.37
2022-10-23T13:10:57.386Z,73.17
2022-10-23T13:11:57.367Z,73.54
2022-10-23T13:12:57.396Z,70.63
2022-10-23T13:13:57.346Z,69.73
2022-10-23T13:14:57.357Z,69.99
2022-10-23T13:15:57.318Z,69.59
2022-10-23T13:16:57.312Z,68.79
2022-10-23T13:17:57.300Z,68.99
2022-10-23T13:18:57.291Z,69.56
2022-10-23T13:19:57.294Z,69.76
2022-10-23T13:20:57.366Z,70.26
2022-10-23T13:21:57.255Z,70.06
2022-10-23T13:23:00.298Z,69.53
2022-10-23T13:23:57.236Z,69.12
2022-10-23T13:24:57.239Z,69.02
2022-10-23T13:25:57.207Z,69.23
2022-10-23T13:26:57.221Z,68.73
2022-10-23T13:27:57.189Z,68.42
2022-10-23T13:28:57.189Z,69.82
2022-10-23T13:29:57.181Z,69.56
2022-10-23T13:30:57.166Z,69.42
2022-10-23T13:31:57.146Z,68.62
2022-10-23T13:32:57.214Z,67.92
2022-10-23T13:33:57.122Z,67.82
2022-10-23T13:35:10.258Z,68.09
2022-10-23T13:35:57.104Z,67.39
2022-10-23T13:36:57.093Z,68.19
2022-10-23T13:37:57.078Z,68.99
2022-10-23T13:38:57.073Z,68.02
2022-10-23T13:39:57.072Z,67.82
2022-10-23T13:40:57.048Z,68.62
2022-10-23T13:41:57.045Z,68.22
2022-10-23T13:42:57.033Z,68.02
2022-10-23T13:43:57.014Z,68.15
2022-10-23T13:44:57.023Z,67.65
2022-10-23T13:45:57.039Z,69.26
2022-10-23T13:46:56.988Z,67.96
2022-10-23T13:47:57.005Z,68.42
2022-10-23T13:48:56.968Z,69.02
2022-10-23T13:49:56.965Z,68.32
2022-10-23T13:50:56.955Z,68.02
2022-10-23T13:51:56.924Z,68.32
2022-10-23T13:52:56.921Z,68.02
2022-10-23T13:53:56.905Z,68.12
2022-10-23T13:54:56.923Z,68.12
2022-10-23T13:55:58.715Z,68.26
2022-10-23T13:56:56.890Z,68.35
2022-10-23T13:57:56.864Z,68.62
2022-10-23T13:58:56.858Z,69.26
2022-10-23T13:59:56.856Z,68.46
2022-10-23T14:00:57.026Z,69.16
2022-10-23T14:01:56.918Z,69.16
2022-10-23T14:02:56.824Z,69.06
2022-10-23T14:03:56.804Z,69.76
2022-10-23T14:04:56.815Z,69.35
2022-10-23T14:05:56.785Z,69.46
2022-10-23T14:06:56.773Z,69.96
2022-10-23T14:07:56.759Z,70.06
2022-10-23T14:08:56.752Z,70.09
2022-10-23T14:09:56.753Z,69.79
2022-10-23T14:10:56.732Z,70.19
2022-10-23T14:11:56.716Z,70.32
2022-10-23T14:12:56.716Z,70.83
2022-10-23T14:13:56.695Z,71.33
2022-10-23T14:14:56.708Z,71.03
2022-10-23T14:15:56.677Z,71.63
2022-10-23T14:16:56.669Z,72.63
2022-10-23T14:17:59.135Z,72.17
2022-10-23T14:18:56.647Z,72.47
2022-10-23T14:19:56.641Z,72.27
2022-10-23T14:20:56.624Z,72.67
2022-10-23T14:21:56.607Z,72.87
2022-10-23T14:22:56.605Z,72.87
2022-10-23T14:23:56.594Z,72.87
2022-10-23T14:24:56.595Z,72.97
2022-10-23T14:25:56.564Z,72.67
2022-10-23T14:26:56.570Z,72.87
2022-10-23T14:27:56.605Z,72.97
2022-10-23T14:28:57.540Z,73.47
2022-10-23T14:29:56.540Z,72.97
2022-10-23T14:30:56.515Z,72.97
2022-10-23T14:31:56.502Z,72.97
2022-10-23T14:32:56.512Z,73.27
2022-10-23T14:33:56.489Z,73.30
2022-10-23T14:34:56.496Z,73.67
2022-10-23T14:35:56.463Z,74.11
2022-10-23T14:37:08.028Z,74.11
2022-10-23T14:37:56.459Z,74.61
2022-10-23T14:38:56.439Z,75.62
2022-10-23T14:39:56.419Z,75.45
2022-10-23T14:40:56.425Z,75.85
2022-10-23T14:41:56.395Z,76.25
2022-10-23T14:42:56.388Z,76.29
2022-10-23T14:43:56.400Z,75.59
2022-10-23T14:44:56.365Z,75.55
2022-10-23T14:45:56.364Z,76.15
2022-10-23T14:46:56.346Z,76.05
2022-10-23T14:47:56.333Z,75.65
2022-10-23T14:48:59.910Z,75.85
2022-10-23T14:49:56.316Z,75.95
2022-10-23T14:50:56.313Z,75.25
2022-10-23T14:51:56.292Z,75.35
2022-10-23T14:52:56.316Z,75.35
2022-10-23T14:53:58.738Z,75.05
2022-10-23T14:54:56.257Z,74.55
2022-10-23T14:55:56.260Z,74.85
2022-10-23T14:56:56.248Z,75.15
2022-10-23T14:57:56.218Z,75.05
2022-10-23T14:58:56.215Z,75.05
2022-10-23T14:59:56.200Z,75.05
2022-10-23T15:00:56.314Z,75.15
2022-10-23T15:01:56.178Z,75.35
2022-10-23T15:02:56.170Z,74.98
2022-10-23T15:03:56.166Z,75.05
2022-10-23T15:04:56.151Z,75.05
2022-10-23T15:05:56.143Z,74.65
2022-10-23T15:06:56.130Z,74.44
2022-10-23T15:07:56.119Z,74.35
2022-10-23T15:08:56.148Z,73.74
2022-10-23T15:09:56.089Z,73.64
2022-10-23T15:10:56.095Z,74.04
2022-10-23T15:11:56.068Z,74.44
2022-10-23T15:12:56.060Z,74.65
2022-10-23T15:13:56.047Z,75.09
2022-10-23T15:14:56.054Z,74.48
2022-10-23T15:15:56.039Z,74.28
2022-10-23T15:16:56.017Z,74.48
2022-10-23T15:17:56.008Z,74.18
2022-10-23T15:18:55.997Z,74.08
2022-10-23T15:19:55.981Z,74.58
2022-10-23T15:20:55.993Z,74.08
2022-10-23T15:21:55.961Z,74.58
2022-10-23T15:22:55.959Z,74.08
2022-10-23T15:23:55.938Z,73.68
2022-10-23T15:24:55.935Z,73.88
2022-10-23T15:25:55.927Z,74.08
2022-10-23T15:26:56.014Z,73.78
2022-10-23T15:27:55.923Z,73.68
2022-10-23T15:28:55.888Z,73.98
2022-10-23T15:29:55.876Z,73.88
2022-10-23T15:30:55.879Z,73.38
2022-10-23T15:31:55.852Z,73.18
2022-10-23T15:32:55.847Z,72.97
2022-10-23T15:33:55.846Z,73.27
2022-10-23T15:34:55.820Z,73.18
2022-10-23T15:35:55.818Z,73.78
2022-10-23T15:36:55.799Z,73.27
2022-10-23T15:37:55.784Z,73.78
2022-10-23T15:38:55.779Z,73.78
2022-10-23T15:39:58.342Z,74.11
2022-10-23T15:40:55.795Z,74.11
2022-10-23T15:41:55.739Z,73.81
2022-10-23T15:42:55.732Z,74.01
2022-10-23T15:43:55.719Z,74.11
2022-10-23T15:44:55.713Z,74.32
2022-10-23T15:45:55.696Z,74.82
2022-10-23T15:46:55.749Z,74.62
2022-10-23T15:47:55.675Z,75.52
2022-10-23T15:48:55.670Z,75.66
2022-10-23T15:49:55.658Z,75.05
2022-10-23T15:50:55.650Z,75.35
2022-10-23T15:51:55.745Z,74.85
2022-10-23T15:52:55.625Z,75.05
2022-10-23T15:53:55.617Z,74.85
2022-10-23T15:54:55.607Z,75.15
2022-10-23T15:55:55.597Z,75.66
2022-10-23T15:56:55.602Z,75.26
2022-10-23T15:57:55.577Z,75.15
2022-10-23T15:58:55.571Z,75.15
2022-10-23T15:59:55.560Z,75.56
2022-10-23T16:00:55.592Z,75.26
2022-10-23T16:01:55.906Z,74.85
2022-10-23T16:02:55.521Z,74.85
2022-10-23T16:03:55.522Z,74.85
2022-10-23T16:04:55.500Z,75.56
2022-10-23T16:05:55.493Z,75.19
2022-10-23T16:06:55.491Z,75.05
2022-10-23T16:07:55.473Z,75.15
2022-10-23T16:08:55.461Z,75.19
2022-10-23T16:09:55.453Z,75.79
2022-10-23T16:10:55.438Z,76.20
2022-10-23T16:11:55.449Z,75.99
2022-10-23T16:12:55.419Z,76.50
2022-10-23T16:13:55.412Z,76.94
2022-10-23T16:14:55.397Z,76.43
2022-10-23T16:15:55.398Z,76.54
2022-10-23T16:16:55.397Z,76.50
2022-10-23T16:17:55.381Z,75.79
2022-10-23T16:18:55.356Z,76.70
2022-10-23T16:19:55.354Z,76.50
2022-10-23T16:20:55.336Z,77.84
2022-10-23T16:21:55.344Z,80.06
2022-10-23T16:22:55.315Z,78.55
2022-10-23T16:23:55.308Z,79.29
2022-10-23T16:24:55.296Z,79.80
2022-10-23T16:25:55.304Z,80.40
2022-10-23T16:26:55.286Z,82.51
2022-10-23T16:27:55.271Z,81.71
2022-10-23T16:28:55.262Z,84.57
2022-10-23T16:29:55.257Z,83.60
2022-10-23T16:30:55.242Z,85.02
2022-10-23T16:31:55.238Z,86.87
2022-10-23T16:32:55.253Z,86.07
2022-10-23T16:33:55.256Z,88.39
2022-10-23T16:34:55.191Z,89.23
2022-10-23T16:35:55.183Z,90.14
2022-10-23T16:36:55.190Z,90.79
2022-10-23T16:37:55.170Z,90.99
2022-10-23T16:38:55.154Z,91.60
2022-10-23T16:39:55.147Z,92.41
2022-10-23T16:40:55.137Z,93.56
2022-10-23T16:41:55.139Z,93.66
2022-10-23T16:42:55.113Z,92.90
2022-10-23T16:43:55.112Z,94.11
2022-10-23T16:44:55.089Z,94.21
2022-10-23T16:45:55.089Z,96.13
2022-10-23T16:46:55.080Z,97.05
2022-10-23T16:47:55.069Z,95.37
2022-10-23T16:48:55.048Z,95.67
2022-10-23T16:49:55.047Z,96.48
2022-10-23T16:50:55.027Z,96.98
2022-10-23T16:51:55.032Z,98.20
2022-10-23T16:52:55.876Z,97.09
2022-10-23T16:53:55.004Z,97.19
2022-10-23T16:54:54.986Z,98.71
2022-10-23T16:55:54.982Z,98.81
2022-10-23T16:56:54.983Z,99.46
2022-10-23T16:57:54.962Z,99.66
2022-10-23T16:58:54.966Z,99.99
2022-10-23T16:59:54.942Z,99.99
2022-10-23T17:00:54.984Z,99.99
2022-10-23T17:01:55.051Z,99.99
2022-10-23T17:02:54.912Z,99.99
2022-10-23T17:03:54.905Z,99.99
2022-10-23T17:04:54.886Z,99.99
2022-10-23T17:05:57.372Z,99.99
2022-10-23T17:06:54.880Z,99.99
2022-10-23T17:07:54.859Z,99.99
2022-10-23T17:08:54.837Z,99.99
2022-10-23T17:09:54.836Z,99.99
2022-10-23T17:10:54.826Z,99.99
2022-10-23T17:11:54.827Z,99.99
2022-10-23T17:12:54.798Z,99.99
2022-10-23T17:13:58.526Z,99.99
2022-10-23T17:14:54.781Z,99.99
2022-10-23T17:15:54.772Z,99.99
2022-10-23T17:16:54.765Z,99.99
2022-10-23T17:17:54.745Z,99.99
2022-10-23T17:18:54.731Z,99.99
2022-10-23T17:19:54.739Z,99.99
2022-10-23T17:20:54.707Z,99.99
2022-10-23T17:21:54.726Z,99.99
2022-10-23T17:22:54.687Z,99.99
2022-10-23T17:23:54.726Z,99.66
2022-10-23T17:24:54.673Z,99.71
2022-10-23T17:25:54.673Z,99.99
2022-10-23T17:26:54.662Z,98.90
2022-10-23T17:27:54.643Z,99.99
2022-10-23T17:28:54.630Z,99.51
2022-10-23T17:29:54.640Z,96.63
2022-10-23T17:30:54.618Z,98.14
2022-10-23T17:31:54.610Z,98.35
2022-10-23T17:32:58.214Z,98.45
2022-10-23T17:33:54.588Z,97.14
2022-10-23T17:34:54.560Z,97.94
2022-10-23T17:35:54.554Z,95.42
2022-10-23T17:36:54.569Z,95.98
2022-10-23T17:37:54.531Z,95.98
2022-10-23T17:38:54.518Z,97.09